Terminal Aerodrome Forecast
Issued by NWS Quad Cities IA IL

Home | Current Version | Previous Version | Text Only | Print | Product List | Glossary Off
Versions: 1 2 3 4 5 6 7 8 9 10 11 12 13 14 15 16 17 18

000
FTUS43 KDVN 011129
TAFDBQ
TAF
KDBQ 011129Z 0112/0212 05007KT P6SM SKC
     FM011600 08010KT P6SM FEW035
     FM012300 09005KT P6SM SKC=

USA.gov is the U.S. government's official web portal to all federal, state and local government web resources and services.